Time;durP1;ratioP1;P1;durP2;ratioP2;P2;SDS_P1;SDS_P2;PMS_P1;PMS_P2;Temp;Humidity;BMP_temperature;BMP_pressure;BME280_temperature;BME280_humidity;BME280_pressure;Samples;Min_cycle;Max_cycle;Signal;HPM_P1;HPM_P2
2023/10/17 00:01:25;;;;;;;11.52;7.55;;;1.40;99.90;;;;;;2094485;28;20235;-69
2023/10/17 00:02:28;;;;;;;10.48;8.00;;;1.30;99.90;;;;;;2084879;28;20908;-69
2023/10/17 00:03:29;;;;;;;10.90;8.40;;;1.30;99.90;;;;;;2087360;28;20233;-69
2023/10/17 00:04:33;;;;;;;10.97;7.83;;;1.20;99.90;;;;;;2084974;28;20326;-69
2023/10/17 00:05:33;;;;;;;11.20;7.55;;;1.20;99.90;;;;;;2089036;28;20224;-69
2023/10/17 00:06:34;;;;;;;8.30;6.20;;;1.10;99.90;;;;;;2089375;28;20313;-69
2023/10/17 00:07:35;;;;;;;8.43;6.33;;;1.20;99.90;;;;;;2086697;28;20235;-69
2023/10/17 00:08:35;;;;;;;8.40;5.60;;;1.20;99.90;;;;;;2086696;28;20243;-69
2023/10/17 00:09:39;;;;;;;7.60;6.17;;;1.20;99.90;;;;;;2088851;28;20224;-69
2023/10/17 00:10:43;;;;;;;10.20;6.75;;;1.10;99.90;;;;;;2088781;28;20277;-69
2023/10/17 00:12:53;;;;;;;10.73;7.13;;;1.00;99.90;;;;;;2083251;28;20216;-68
2023/10/17 00:14:01;;;;;;;11.57;8.00;;;1.00;99.90;;;;;;2087219;28;20359;-69
2023/10/17 00:15:16;;;;;;;10.60;7.57;;;1.00;99.90;;;;;;2078089;28;20224;-68
2023/10/17 00:16:17;;;;;;;10.85;7.65;;;1.00;99.90;;;;;;2081427;28;20351;-69
2023/10/17 00:17:18;;;;;;;11.52;8.10;;;1.00;99.90;;;;;;2081929;28;20280;-69
2023/10/17 00:18:21;;;;;;;11.63;7.97;;;1.10;99.90;;;;;;2075149;28;20185;-69
2023/10/17 00:19:26;;;;;;;12.05;8.57;;;1.10;99.90;;;;;;2072918;28;20185;-68
2023/10/17 00:20:32;;;;;;;12.38;8.52;;;1.10;99.90;;;;;;2079606;28;20275;-69
2023/10/17 00:21:33;;;;;;;11.15;8.13;;;1.00;99.90;;;;;;2080670;28;20235;-69
2023/10/17 00:22:36;;;;;;;9.93;7.63;;;1.00;99.90;;;;;;2087777;28;20292;-69
2023/10/17 00:23:39;;;;;;;10.32;7.15;;;1.10;99.90;;;;;;2073738;28;20229;-69
2023/10/17 00:24:39;;;;;;;10.82;7.38;;;1.20;99.90;;;;;;2084302;28;20235;-68
2023/10/17 00:25:45;;;;;;;11.20;7.30;;;1.20;99.90;;;;;;2088748;28;20690;-69
2023/10/17 00:26:49;;;;;;;14.05;8.43;;;1.30;99.90;;;;;;2081332;28;20236;-69
2023/10/17 00:27:50;;;;;;;9.57;6.90;;;1.30;99.90;;;;;;2061561;28;20250;-69
2023/10/17 00:28:53;;;;;;;10.50;7.80;;;1.30;99.90;;;;;;2071773;28;20285;-69
2023/10/17 00:29:57;;;;;;;9.95;7.72;;;1.20;99.90;;;;;;2080213;28;20274;-69
2023/10/17 00:30:59;;;;;;;10.00;6.97;;;1.20;99.90;;;;;;2088401;28;20628;-69
2023/10/17 00:32:00;;;;;;;9.63;7.47;;;1.20;99.90;;;;;;2079550;28;20232;-69
2023/10/17 00:33:00;;;;;;;11.50;8.10;;;1.20;99.90;;;;;;2073206;28;20263;-68
2023/10/17 00:34:01;;;;;;;12.07;8.73;;;1.20;99.90;;;;;;2073921;28;20222;-73
2023/10/17 00:35:12;;;;;;;14.10;9.60;;;1.20;99.90;;;;;;2079942;28;20757;-69
2023/10/17 00:36:16;;;;;;;14.40;9.18;;;1.20;99.90;;;;;;2072216;28;20208;-69
2023/10/17 00:37:19;;;;;;;14.10;9.70;;;1.30;99.90;;;;;;2077618;28;20233;-69
2023/10/17 00:38:20;;;;;;;12.98;9.73;;;1.30;99.90;;;;;;2077876;28;20284;-69
2023/10/17 00:39:36;;;;;;;14.97;10.40;;;1.20;99.90;;;;;;2079613;28;20191;-68
2023/10/17 00:40:51;;;;;;;14.07;8.65;;;1.20;99.90;;;;;;2072293;28;20303;-69
2023/10/17 00:42:09;;;;;;;11.52;8.50;;;1.20;99.90;;;;;;2085931;28;20220;-68
2023/10/17 00:43:13;;;;;;;13.27;9.35;;;1.20;99.90;;;;;;2077785;28;20692;-69
2023/10/17 00:44:14;;;;;;;13.75;10.25;;;1.30;99.90;;;;;;2079536;28;20189;-69
2023/10/17 00:45:15;;;;;;;13.63;9.75;;;1.30;99.90;;;;;;2084236;28;20196;-69
2023/10/17 00:46:16;;;;;;;12.90;9.60;;;1.30;99.90;;;;;;2092424;28;20188;-69
2023/10/17 00:47:19;;;;;;;13.00;9.13;;;1.20;99.90;;;;;;2090230;28;20189;-69
2023/10/17 00:48:22;;;;;;;12.55;9.32;;;1.20;99.90;;;;;;2088983;28;20181;-69
2023/10/17 00:49:29;;;;;;;11.18;7.75;;;1.20;99.90;;;;;;2090231;28;20184;-68
2023/10/17 00:50:30;;;;;;;14.75;9.73;;;1.30;99.90;;;;;;2089548;28;20227;-69
2023/10/17 00:51:32;;;;;;;14.38;10.60;;;1.20;99.90;;;;;;2088867;28;20946;-69
2023/10/17 00:52:34;;;;;;;13.23;9.77;;;1.20;99.90;;;;;;2088465;28;20668;-69
2023/10/17 00:53:40;;;;;;;15.23;10.25;;;1.20;99.90;;;;;;2084465;28;20221;-69
2023/10/17 00:54:41;;;;;;;13.27;10.32;;;1.20;99.90;;;;;;2079647;28;20221;-69
2023/10/17 00:55:52;;;;;;;13.35;8.32;;;1.20;99.90;;;;;;2087778;28;20228;-68
2023/10/17 00:56:56;;;;;;;14.30;10.57;;;1.20;99.90;;;;;;2076880;28;20221;-68
2023/10/17 00:57:58;;;;;;;15.38;10.77;;;1.20;99.90;;;;;;2079941;28;20231;-69
2023/10/17 00:59:00;;;;;;;14.77;9.40;;;1.20;99.90;;;;;;2088310;28;20224;-68
2023/10/17 01:01:27;;;;;;;13.25;8.80;;;1.20;99.90;;;;;;2061979;28;20237;-69
2023/10/17 01:02:32;;;;;;;12.47;8.77;;;1.30;99.90;;;;;;2085217;28;20232;-69
2023/10/17 01:03:33;;;;;;;11.27;8.30;;;1.30;99.90;;;;;;2086404;28;20232;-69
2023/10/17 01:04:39;;;;;;;15.27;9.57;;;1.30;99.90;;;;;;2079043;28;20232;-68
2023/10/17 01:05:57;;;;;;;12.88;8.98;;;1.30;99.90;;;;;;2079151;28;20232;-69
2023/10/17 01:07:05;;;;;;;14.85;10.30;;;1.30;99.90;;;;;;2083028;28;20255;-69
2023/10/17 01:08:06;;;;;;;13.27;9.43;;;1.20;99.90;;;;;;2079656;28;20736;-69
2023/10/17 01:09:25;;;;;;;13.83;9.17;;;1.10;99.90;;;;;;2088696;28;20188;-69
2023/10/17 01:10:28;;;;;;;14.63;9.68;;;1.10;99.90;;;;;;2086016;28;20291;-69
2023/10/17 01:11:29;;;;;;;15.85;10.30;;;1.10;99.90;;;;;;2088333;28;20964;-69
2023/10/17 01:12:30;;;;;;;13.80;9.63;;;1.10;99.90;;;;;;2088393;28;20231;-69
2023/10/17 01:13:30;;;;;;;13.67;9.43;;;1.10;99.90;;;;;;2086526;28;20310;-69
2023/10/17 01:14:32;;;;;;;12.70;9.13;;;1.20;99.90;;;;;;2087852;28;20262;-69
2023/10/17 01:15:33;;;;;;;12.20;8.82;;;1.10;99.90;;;;;;2087458;28;20283;-69
2023/10/17 01:16:34;;;;;;;11.83;8.73;;;1.10;99.90;;;;;;2088078;28;20224;-69
2023/10/17 01:17:35;;;;;;;13.88;7.78;;;1.10;99.90;;;;;;2079719;28;20232;-69
2023/10/17 01:18:36;;;;;;;10.13;7.83;;;1.20;99.90;;;;;;2079834;28;20702;-69
2023/10/17 01:19:37;;;;;;;13.30;8.65;;;1.20;99.90;;;;;;2088105;28;20231;-69
2023/10/17 01:20:38;;;;;;;10.03;7.07;;;1.20;99.90;;;;;;2085906;28;20596;-69
2023/10/17 01:21:40;;;;;;;9.80;7.00;;;1.30;99.90;;;;;;2079249;28;20231;-69
2023/10/17 01:22:42;;;;;;;9.85;7.40;;;1.30;99.90;;;;;;2071163;28;20241;-68
2023/10/17 01:23:43;;;;;;;9.20;7.10;;;1.30;99.90;;;;;;2072400;28;20229;-69
2023/10/17 01:24:44;;;;;;;11.07;7.80;;;1.40;99.90;;;;;;2079669;28;20225;-69
2023/10/17 01:25:46;;;;;;;9.80;7.65;;;1.30;99.90;;;;;;2086821;28;20224;-68
2023/10/17 01:26:47;;;;;;;11.80;8.43;;;1.30;99.90;;;;;;2079966;28;20320;-69
2023/10/17 01:27:49;;;;;;;12.20;8.43;;;1.30;99.90;;;;;;2079841;28;20690;-69
2023/10/17 01:28:52;;;;;;;10.18;7.97;;;1.30;99.90;;;;;;2086893;28;20220;-69
2023/10/17 01:29:52;;;;;;;11.52;7.63;;;1.20;99.90;;;;;;2080893;28;20225;-69
2023/10/17 01:30:55;;;;;;;10.73;7.87;;;1.00;99.90;;;;;;2079970;28;20319;-69
2023/10/17 01:31:57;;;;;;;11.48;8.43;;;1.00;99.90;;;;;;2072083;28;20220;-69
2023/10/17 01:32:58;;;;;;;12.05;8.65;;;1.00;99.90;;;;;;2079362;28;20245;-70
2023/10/17 01:33:59;;;;;;;10.13;7.20;;;1.00;99.90;;;;;;2079422;28;20228;-69
2023/10/17 01:35:01;;;;;;;10.38;8.32;;;1.10;99.90;;;;;;2076099;28;20289;-69
2023/10/17 01:36:04;;;;;;;9.70;7.93;;;1.10;99.90;;;;;;2074027;28;20284;-69
2023/10/17 01:37:07;;;;;;;14.82;8.50;;;1.20;99.90;;;;;;2086459;28;20242;-69
2023/10/17 01:38:08;;;;;;;11.82;8.45;;;1.20;99.90;;;;;;2082352;28;20211;-69
2023/10/17 01:39:09;;;;;;;10.65;8.77;;;1.20;99.90;;;;;;2073743;28;20201;-69
2023/10/17 01:40:19;;;;;;;10.85;7.45;;;1.30;99.90;;;;;;2071315;28;20189;-70
2023/10/17 01:41:20;;;;;;;10.02;7.50;;;1.30;99.90;;;;;;2079965;28;20177;-69
2023/10/17 01:42:21;;;;;;;12.48;8.27;;;1.30;99.90;;;;;;2087904;28;20204;-69
2023/10/17 01:43:23;;;;;;;12.30;8.90;;;1.30;99.90;;;;;;2088922;28;20184;-69
2023/10/17 01:44:24;;;;;;;11.30;8.60;;;1.30;99.90;;;;;;2080542;28;20676;-69
2023/10/17 01:45:37;;;;;;;12.07;9.05;;;1.30;99.90;;;;;;2071511;28;20229;-69
2023/10/17 01:46:38;;;;;;;12.00;7.93;;;1.30;99.90;;;;;;2075236;28;20233;-69
2023/10/17 01:47:39;;;;;;;10.93;8.75;;;1.30;99.90;;;;;;2087931;28;20228;-70
2023/10/17 01:48:40;;;;;;;11.70;8.97;;;1.30;99.90;;;;;;2087546;28;20648;-70
2023/10/17 01:49:40;;;;;;;11.30;8.63;;;1.30;99.90;;;;;;2074030;28;20236;-69
2023/10/17 01:50:41;;;;;;;14.67;9.80;;;1.20;99.90;;;;;;2080439;28;20482;-69
2023/10/17 01:51:48;;;;;;;11.45;9.38;;;1.20;99.90;;;;;;2083328;28;20301;-69
2023/10/17 01:52:51;;;;;;;13.05;9.02;;;1.10;99.90;;;;;;2084601;28;20224;-68
2023/10/17 01:53:52;;;;;;;12.73;9.00;;;1.10;99.90;;;;;;2087907;28;20646;-69
2023/10/17 01:54:52;;;;;;;13.30;9.85;;;1.20;99.90;;;;;;2087993;28;20268;-69
2023/10/17 01:56:06;;;;;;;14.90;10.47;;;1.20;99.90;;;;;;2086742;28;20295;-69
2023/10/17 01:57:08;;;;;;;14.52;10.82;;;1.20;99.90;;;;;;2086264;28;20226;-69
2023/10/17 01:58:15;;;;;;;16.73;11.35;;;1.20;99.90;;;;;;2082513;28;20260;-69
2023/10/17 01:59:28;;;;;;;18.77;12.60;;;1.20;99.90;;;;;;2081881;28;20189;-69
2023/10/17 02:01:36;;;;;;;15.30;11.80;;;1.20;99.90;;;;;;2088467;28;20224;-69
2023/10/17 02:02:37;;;;;;;17.77;11.65;;;1.30;99.90;;;;;;2087995;28;20752;-69
2023/10/17 02:03:37;;;;;;;17.23;11.98;;;1.30;99.90;;;;;;2078138;28;20291;-69
2023/10/17 02:04:38;;;;;;;15.70;11.00;;;1.30;99.90;;;;;;2079675;28;21010;-69
2023/10/17 02:05:39;;;;;;;12.63;9.53;;;1.40;99.90;;;;;;2078721;28;20248;-69
2023/10/17 02:06:40;;;;;;;15.03;10.80;;;1.40;99.90;;;;;;2079882;28;20670;-68
2023/10/17 02:07:41;;;;;;;13.15;9.48;;;1.30;99.90;;;;;;2086291;28;20598;-69
2023/10/17 02:08:45;;;;;;;11.63;9.17;;;1.30;99.90;;;;;;2086378;28;20234;-69
2023/10/17 02:09:46;;;;;;;12.35;8.45;;;1.30;99.90;;;;;;2086906;28;20235;-69
2023/10/17 02:10:47;;;;;;;13.60;8.98;;;1.30;99.90;;;;;;2088356;28;20782;-68
2023/10/17 02:11:50;;;;;;;11.10;7.88;;;1.20;99.90;;;;;;2089415;28;20250;-69
2023/10/17 02:12:52;;;;;;;10.00;8.05;;;1.20;99.90;;;;;;2066349;28;20221;-69
2023/10/17 02:13:57;;;;;;;11.25;8.52;;;1.20;99.90;;;;;;2063986;28;20283;-69
2023/10/17 02:14:58;;;;;;;12.60;9.05;;;1.20;99.90;;;;;;2080667;28;20304;-69
2023/10/17 02:16:00;;;;;;;11.30;8.53;;;1.20;99.90;;;;;;2081019;28;20220;-69
2023/10/17 02:17:00;;;;;;;13.45;9.20;;;1.20;99.90;;;;;;2072577;28;20226;-69
2023/10/17 02:18:12;;;;;;;13.47;9.60;;;1.30;99.90;;;;;;2068026;28;20225;-69
2023/10/17 02:19:12;;;;;;;13.43;9.05;;;1.20;99.90;;;;;;2081731;28;20742;-69
2023/10/17 02:21:29;;;;;;;15.15;9.70;;;1.20;99.90;;;;;;2086587;28;20319;-68
2023/10/17 02:22:31;;;;;;;14.30;10.87;;;1.20;99.90;;;;;;2089434;28;20235;-69
2023/10/17 02:23:40;;;;;;;14.15;10.10;;;1.20;99.90;;;;;;2088704;28;20243;-69
2023/10/17 02:24:40;;;;;;;14.82;10.30;;;1.20;99.90;;;;;;2085851;28;20239;-68
2023/10/17 02:25:41;;;;;;;14.37;9.60;;;1.20;99.90;;;;;;2079176;28;20224;-68
2023/10/17 02:26:42;;;;;;;14.30;10.05;;;1.20;99.90;;;;;;2078535;28;20711;-69
2023/10/17 02:27:44;;;;;;;11.70;8.65;;;1.20;99.90;;;;;;2089697;28;20220;-69
2023/10/17 02:28:46;;;;;;;13.88;9.73;;;1.20;99.90;;;;;;2079964;28;20811;-69
2023/10/17 02:29:48;;;;;;;14.65;9.90;;;1.10;99.90;;;;;;2072075;28;20236;-69
2023/10/17 02:30:48;;;;;;;11.50;9.43;;;1.20;99.90;;;;;;2078285;28;20257;-69
2023/10/17 02:31:52;;;;;;;14.33;10.07;;;1.20;99.90;;;;;;2080005;28;20695;-69
2023/10/17 02:32:56;;;;;;;11.85;8.65;;;1.10;99.90;;;;;;2080473;28;20226;-69
2023/10/17 02:33:56;;;;;;;12.20;8.95;;;1.10;99.90;;;;;;2078094;28;20308;-68
2023/10/17 02:34:58;;;;;;;13.63;8.80;;;1.20;99.90;;;;;;2089175;28;20651;-68
2023/10/17 02:36:08;;;;;;;11.27;8.15;;;1.20;99.90;;;;;;2090098;28;20673;-68
2023/10/17 02:37:16;;;;;;;12.43;8.48;;;1.20;99.90;;;;;;2088736;28;20216;-69
2023/10/17 02:38:17;;;;;;;11.70;8.80;;;1.20;99.90;;;;;;2088571;28;20181;-69
2023/10/17 02:39:20;;;;;;;13.57;8.93;;;1.20;99.90;;;;;;2089451;28;20189;-69
2023/10/17 02:40:21;;;;;;;13.43;8.82;;;1.10;99.90;;;;;;2080040;28;20288;-68
2023/10/17 02:41:22;;;;;;;12.43;8.30;;;1.20;99.90;;;;;;2073008;28;20185;-69
2023/10/17 02:42:23;;;;;;;13.68;8.80;;;1.10;99.90;;;;;;2081911;28;20299;-69
2023/10/17 02:43:24;;;;;;;12.48;8.40;;;1.10;99.90;;;;;;2086208;28;20288;-69
2023/10/17 02:44:25;;;;;;;10.80;8.23;;;1.10;99.90;;;;;;2087229;28;20305;-69
2023/10/17 02:45:26;;;;;;;11.13;8.53;;;1.10;99.90;;;;;;2083283;28;20240;-69
2023/10/17 02:46:26;;;;;;;11.40;8.63;;;1.10;99.90;;;;;;2083663;28;20308;-69
2023/10/17 02:47:27;;;;;;;13.30;8.90;;;1.10;99.90;;;;;;2079878;28;20221;-68
2023/10/17 02:48:27;;;;;;;13.30;8.47;;;1.10;99.90;;;;;;2076009;28;20236;-69
2023/10/17 02:49:36;;;;;;;13.07;8.83;;;1.00;99.90;;;;;;2083831;28;20312;-68
2023/10/17 02:50:47;;;;;;;13.20;8.68;;;0.90;99.90;;;;;;2085082;28;20220;-69
2023/10/17 02:51:48;;;;;;;13.25;8.85;;;0.90;99.90;;;;;;2080787;28;20728;-69
2023/10/17 02:52:51;;;;;;;14.97;9.17;;;0.90;99.90;;;;;;2078514;28;20235;-68
2023/10/17 02:53:55;;;;;;;13.25;9.10;;;0.90;99.90;;;;;;2079968;28;20212;-68
2023/10/17 02:54:56;;;;;;;13.40;9.45;;;1.00;99.90;;;;;;2085217;28;20235;-69
2023/10/17 02:55:58;;;;;;;13.97;9.77;;;1.00;99.90;;;;;;2089925;28;20690;-69
2023/10/17 02:56:58;;;;;;;16.00;9.77;;;1.10;99.90;;;;;;2087922;28;20242;-69
2023/10/17 02:57:59;;;;;;;14.97;9.80;;;1.00;99.90;;;;;;2090032;28;20227;-69
2023/10/17 02:59:06;;;;;;;14.43;8.63;;;1.00;99.90;;;;;;2089312;28;20224;-69
2023/10/17 03:00:52;;;;;;;12.43;9.05;;;1.00;99.90;;;;;;2081868;28;20228;-69
2023/10/17 03:01:29;;;;;;;12.82;9.00;;;1.10;99.90;;;;;;2078794;28;20437;-69
2023/10/17 03:02:48;;;;;;;12.02;8.93;;;1.00;99.90;;;;;;2090451;28;20235;-69
2023/10/17 03:03:51;;;;;;;11.75;9.27;;;0.90;99.90;;;;;;2090008;28;20309;-69
2023/10/17 03:04:52;;;;;;;13.73;9.75;;;0.90;99.90;;;;;;2079269;28;20735;-69
2023/10/17 03:05:53;;;;;;;15.05;10.38;;;1.00;99.90;;;;;;2080742;28;20228;-68
2023/10/17 03:06:54;;;;;;;14.10;10.30;;;1.00;99.90;;;;;;2089316;28;20236;-68
2023/10/17 03:07:54;;;;;;;16.07;10.67;;;1.00;99.90;;;;;;2073795;28;20232;-69
2023/10/17 03:09:01;;;;;;;15.13;10.03;;;1.00;99.90;;;;;;2066133;28;20255;-68
2023/10/17 03:10:03;;;;;;;16.00;9.85;;;1.00;99.90;;;;;;2076792;28;20279;-68
2023/10/17 03:11:08;;;;;;;15.43;10.10;;;1.10;99.90;;;;;;2088800;28;20228;-68
2023/10/17 03:12:10;;;;;;;14.57;10.93;;;1.10;99.90;;;;;;2077986;28;20226;-69
2023/10/17 03:14:39;;;;;;;14.93;10.90;;;1.20;99.90;;;;;;2090304;28;20222;-68
2023/10/17 03:15:45;;;;;;;14.63;10.60;;;1.10;99.90;;;;;;2075647;28;20231;-69
2023/10/17 03:16:52;;;;;;;15.07;10.57;;;1.20;99.90;;;;;;2078650;28;20229;-68
2023/10/17 03:18:00;;;;;;;15.85;10.55;;;1.10;99.90;;;;;;2087682;28;20227;-68
2023/10/17 03:19:06;;;;;;;15.43;10.10;;;1.20;99.90;;;;;;2085330;28;20598;-68
2023/10/17 03:20:10;;;;;;;13.85;9.57;;;1.10;99.90;;;;;;2088581;28;20267;-69
2023/10/17 03:21:12;;;;;;;14.23;10.18;;;1.10;99.90;;;;;;2087887;28;20193;-68
2023/10/17 03:22:26;;;;;;;13.48;9.63;;;1.00;99.90;;;;;;2089103;28;20740;-69
2023/10/17 03:23:28;;;;;;;12.20;9.25;;;1.00;99.90;;;;;;2081049;28;20732;-69
2023/10/17 03:24:38;;;;;;;12.70;9.57;;;1.10;99.90;;;;;;2089091;28;20228;-68
2023/10/17 03:25:40;;;;;;;11.85;8.43;;;1.00;99.90;;;;;;2089722;28;20231;-68
2023/10/17 03:26:42;;;;;;;14.75;9.48;;;1.00;99.90;;;;;;2087010;28;20240;-69
2023/10/17 03:27:48;;;;;;;13.50;8.75;;;1.10;99.90;;;;;;2089262;28;20273;-68
2023/10/17 03:28:50;;;;;;;13.57;9.30;;;1.00;99.90;;;;;;2079149;28;20224;-68
2023/10/17 03:29:51;;;;;;;16.67;11.00;;;1.00;99.90;;;;;;2075379;28;20307;-69
2023/10/17 03:30:52;;;;;;;15.32;10.15;;;1.00;99.90;;;;;;2089190;28;20682;-68
2023/10/17 03:31:58;;;;;;;15.07;11.13;;;1.00;99.90;;;;;;2085500;28;20220;-68
2023/10/17 03:34:04;;;;;;;14.50;10.93;;;0.90;99.90;;;;;;2085988;28;20238;-68
2023/10/17 03:35:07;;;;;;;15.88;10.77;;;0.90;99.90;;;;;;2081764;28;20217;-69
2023/10/17 03:36:23;;;;;;;18.65;10.95;;;0.90;99.90;;;;;;2083408;28;20176;-69
2023/10/17 03:38:26;;;;;;;16.27;10.97;;;1.00;99.90;;;;;;2089394;28;20330;-69
2023/10/17 03:39:28;;;;;;;16.33;11.18;;;0.90;99.90;;;;;;2088760;28;20307;-69
2023/10/17 03:40:51;;;;;;;15.77;10.95;;;0.90;99.90;;;;;;2085527;28;20228;-69
2023/10/17 03:41:57;;;;;;;14.32;10.15;;;0.90;99.90;;;;;;2086129;28;20306;-69
2023/10/17 03:43:08;;;;;;;15.25;10.35;;;0.80;99.90;;;;;;2080874;28;20252;-69
2023/10/17 03:44:09;;;;;;;14.27;10.02;;;0.90;99.90;;;;;;2071559;28;20283;-69
2023/10/17 03:45:21;;;;;;;14.73;10.40;;;1.00;99.90;;;;;;2076383;28;20181;-69
2023/10/17 03:46:25;;;;;;;15.95;10.35;;;1.00;99.90;;;;;;2088135;28;20176;-69
2023/10/17 03:47:27;;;;;;;13.23;8.93;;;0.90;99.90;;;;;;2088566;28;20230;-68
2023/10/17 03:48:32;;;;;;;11.05;8.15;;;0.90;99.90;;;;;;2089272;28;20225;-69
2023/10/17 03:49:39;;;;;;;11.63;8.70;;;1.00;99.90;;;;;;2069299;28;20305;-68
2023/10/17 03:50:57;;;;;;;13.27;8.75;;;1.00;99.90;;;;;;2074927;28;20239;-68
2023/10/17 03:52:03;;;;;;;11.73;8.80;;;1.00;99.90;;;;;;2088562;28;20224;-69
2023/10/17 03:53:14;;;;;;;11.23;8.10;;;1.10;99.90;;;;;;2069663;28;20225;-69
2023/10/17 03:54:18;;;;;;;14.07;10.02;;;1.10;99.90;;;;;;2074553;28;20280;-69
2023/10/17 03:55:21;;;;;;;13.93;9.48;;;1.10;99.90;;;;;;2080354;28;20188;-69
2023/10/17 03:56:24;;;;;;;13.65;9.82;;;1.10;99.90;;;;;;2088632;28;20195;-69
2023/10/17 03:57:28;;;;;;;12.82;9.95;;;1.00;99.90;;;;;;2089035;28;20603;-69
2023/10/17 03:59:40;;;;;;;13.05;9.23;;;1.00;99.90;;;;;;2080190;28;20225;-69
2023/10/17 04:00:45;;;;;;;12.40;9.10;;;1.00;99.90;;;;;;2083870;28;20233;-69
2023/10/17 04:01:49;;;;;;;12.93;9.38;;;0.90;99.90;;;;;;2075583;28;20313;-69
2023/10/17 04:02:49;;;;;;;13.20;9.20;;;0.80;99.90;;;;;;2080922;28;20729;-69
2023/10/17 04:03:54;;;;;;;11.70;9.60;;;0.80;99.90;;;;;;2078969;28;20315;-69
2023/10/17 04:04:55;;;;;;;11.48;8.93;;;0.80;99.90;;;;;;2079852;28;20230;-69
2023/10/17 04:07:05;;;;;;;11.30;8.65;;;0.90;99.90;;;;;;2088622;28;20231;-68
2023/10/17 04:08:09;;;;;;;12.07;9.45;;;0.80;99.90;;;;;;2081046;28;20233;-69
2023/10/17 04:10:35;;;;;;;12.25;8.95;;;0.70;99.90;;;;;;2087207;28;20231;-69
2023/10/17 04:11:39;;;;;;;11.30;8.38;;;0.70;99.90;;;;;;2087492;28;20307;-69
2023/10/17 04:12:49;;;;;;;13.13;9.32;;;0.80;99.90;;;;;;2088346;28;20303;-69
2023/10/17 04:13:55;;;;;;;12.30;8.65;;;0.70;99.90;;;;;;2088121;28;20228;-69
2023/10/17 04:14:59;;;;;;;11.70;9.00;;;0.70;99.90;;;;;;2079658;28;20636;-69
2023/10/17 04:16:08;;;;;;;13.02;9.52;;;0.70;99.90;;;;;;2076732;28;20661;-68
2023/10/17 04:17:14;;;;;;;13.27;9.15;;;0.70;99.90;;;;;;2082264;28;20213;-69
2023/10/17 04:18:14;;;;;;;13.88;8.75;;;0.70;99.90;;;;;;2088689;28;20196;-69
2023/10/17 04:19:18;;;;;;;15.20;9.20;;;0.60;99.90;;;;;;2087597;28;20195;-69
2023/10/17 04:20:22;;;;;;;14.73;10.18;;;0.70;99.90;;;;;;2083472;28;20192;-69
2023/10/17 04:21:28;;;;;;;13.25;9.30;;;0.60;99.90;;;;;;2082333;28;20787;-68
2023/10/17 04:22:29;;;;;;;15.63;10.43;;;0.50;99.90;;;;;;2089429;28;20235;-68
2023/10/17 04:23:31;;;;;;;15.52;9.85;;;0.60;99.90;;;;;;2079870;28;20229;-69
2023/10/17 04:24:35;;;;;;;15.07;10.70;;;0.50;99.90;;;;;;2071342;28;20637;-69
2023/10/17 04:25:38;;;;;;;15.00;10.02;;;0.50;99.90;;;;;;2078232;28;20229;-68
2023/10/17 04:26:48;;;;;;;14.13;9.88;;;0.60;99.90;;;;;;2090729;28;20236;-69
2023/10/17 04:27:58;;;;;;;12.82;9.25;;;0.70;99.90;;;;;;2088350;28;20224;-70
2023/10/17 04:29:11;;;;;;;15.70;10.48;;;0.70;99.90;;;;;;2077080;28;20699;-69
2023/10/17 04:30:15;;;;;;;14.10;9.80;;;0.70;99.90;;;;;;2080176;28;20217;-69
2023/10/17 04:31:25;;;;;;;14.90;9.75;;;0.60;99.90;;;;;;2086414;28;20194;-72
2023/10/17 04:32:28;;;;;;;14.90;10.30;;;0.70;99.90;;;;;;2088729;28;20240;-69
2023/10/17 04:33:29;;;;;;;15.05;10.20;;;0.70;99.90;;;;;;2068018;28;20776;-70
2023/10/17 04:34:30;;;;;;;15.40;10.43;;;0.70;99.90;;;;;;2060868;28;20241;-69
2023/10/17 04:35:32;;;;;;;14.83;10.10;;;0.70;99.90;;;;;;2075365;28;20248;-68
2023/10/17 04:36:37;;;;;;;14.32;10.80;;;0.60;99.90;;;;;;2086381;28;20232;-68
2023/10/17 04:37:44;;;;;;;15.13;10.50;;;0.50;99.90;;;;;;2088119;28;20319;-69
2023/10/17 04:38:46;;;;;;;13.77;10.02;;;0.30;99.90;;;;;;2074730;28;20599;-68
2023/10/17 04:39:50;;;;;;;16.70;11.05;;;0.30;99.90;;;;;;2075002;28;20237;-70
2023/10/17 04:42:47;;;;;;;15.43;11.70;;;0.30;99.90;;;;;;2085629;28;20228;-68
2023/10/17 04:44:55;;;;;;;17.60;12.45;;;0.50;99.90;;;;;;2088731;28;20675;-69
2023/10/17 04:45:56;;;;;;;15.77;10.00;;;0.60;99.90;;;;;;2085667;28;20307;-69
2023/10/17 04:48:11;;;;;;;15.70;11.65;;;0.70;99.90;;;;;;2078988;28;20216;-69
2023/10/17 04:49:17;;;;;;;15.55;10.98;;;0.70;99.90;;;;;;2080908;28;20216;-69
2023/10/17 04:50:19;;;;;;;16.33;11.15;;;0.70;99.90;;;;;;2088376;28;20267;-68
2023/10/17 04:51:24;;;;;;;14.40;10.75;;;0.70;99.90;;;;;;2087120;28;20366;-69
2023/10/17 04:52:40;;;;;;;17.05;11.25;;;0.60;99.90;;;;;;2085573;28;20264;-69
2023/10/17 04:53:48;;;;;;;17.42;11.98;;;0.70;99.90;;;;;;2078981;28;20228;-68
2023/10/17 04:54:53;;;;;;;19.02;14.32;;;0.70;99.90;;;;;;2081069;28;20232;-68
2023/10/17 04:56:12;;;;;;;20.80;14.15;;;0.80;99.90;;;;;;2084979;28;20228;-68
2023/10/17 04:57:16;;;;;;;22.30;14.88;;;0.80;99.90;;;;;;2071892;28;20692;-69
2023/10/17 04:58:39;;;;;;;20.90;15.13;;;0.90;99.90;;;;;;2072697;28;20198;-69
2023/10/17 05:01:17;;;;;;;24.10;16.38;;;1.00;99.90;;;;;;2088366;28;20228;-69
2023/10/17 05:04:35;;;;;;;26.58;18.80;;;1.20;99.90;;;;;;2087449;28;20280;-69
2023/10/17 05:05:39;;;;;;;25.13;16.45;;;1.20;99.90;;;;;;2078181;28;20232;-68
2023/10/17 05:08:11;;;;;;;27.88;17.02;;;1.40;99.90;;;;;;2084527;28;20251;-68
2023/10/17 06:16:49;;;;;;;25.98;16.85;;;1.40;99.90;;;;;;2085454;28;20690;-68
2023/10/17 06:16:49;;;;;;;32.08;19.58;;;1.20;99.90;;;;;;2087586;28;20236;-69
2023/10/17 06:17:07;;;;;;;45.20;29.33;;;1.30;99.90;;;;;;2082677;28;20691;-68
2023/10/17 06:18:17;;;;;;;46.05;29.10;;;1.40;99.90;;;;;;2087404;28;20255;-68
2023/10/17 06:19:21;;;;;;;46.55;29.02;;;1.50;99.90;;;;;;2086530;28;20192;-68
2023/10/17 06:27:11;;;;;;;34.88;24.48;;;1.70;99.90;;;;;;2088563;28;20669;-68
2023/10/17 06:28:29;;;;;;;33.30;22.73;;;1.60;99.90;;;;;;2077553;28;20299;-68
2023/10/17 06:30:46;;;;;;;31.50;19.30;;;1.60;99.90;;;;;;2085287;28;20252;-68
2023/10/17 06:33:19;;;;;;;30.00;19.70;;;1.60;99.90;;;;;;2085638;28;20221;-68
2023/10/17 06:34:21;;;;;;;32.67;20.88;;;1.70;99.90;;;;;;2077596;28;20189;-68
2023/10/17 06:35:23;;;;;;;30.10;18.88;;;1.70;99.90;;;;;;2079780;28;20239;-68
2023/10/17 06:36:28;;;;;;;29.55;20.17;;;1.80;99.90;;;;;;2088701;28;20185;-68
2023/10/17 06:37:32;;;;;;;31.35;21.00;;;1.80;99.90;;;;;;2088596;28;20702;-68
2023/10/17 06:38:46;;;;;;;29.92;19.98;;;1.80;99.90;;;;;;2088420;28;20235;-68
2023/10/17 06:39:47;;;;;;;31.65;18.70;;;1.90;99.90;;;;;;2077617;28;20315;-68
2023/10/17 06:40:53;;;;;;;26.48;16.83;;;1.90;99.90;;;;;;2071251;28;20247;-68
2023/10/17 06:42:13;;;;;;;24.35;16.70;;;2.00;99.90;;;;;;2079942;28;20229;-67
2023/10/17 06:43:27;;;;;;;25.30;16.05;;;2.00;99.90;;;;;;2081839;28;20208;-69
2023/10/17 06:44:30;;;;;;;30.60;18.10;;;2.00;99.90;;;;;;2084896;28;20227;-69
2023/10/17 06:45:36;;;;;;;35.35;20.08;;;2.00;99.90;;;;;;2077672;28;20344;-69
2023/10/17 06:46:48;;;;;;;26.15;17.45;;;2.00;99.90;;;;;;2078633;28;20220;-69
2023/10/17 06:47:49;;;;;;;29.27;18.25;;;2.00;99.90;;;;;;2083859;28;20734;-69
2023/10/17 06:48:56;;;;;;;25.95;17.30;;;2.00;99.90;;;;;;2085880;28;20227;-69
2023/10/17 06:51:21;;;;;;;30.00;17.73;;;2.00;99.90;;;;;;2087777;28;20621;-69
2023/10/17 06:51:36;;;;;;;29.45;17.50;;;1.90;99.90;;;;;;2086674;28;21024;-69
2023/10/17 06:52:40;;;;;;;26.53;17.33;;;2.00;99.90;;;;;;2078998;28;20236;-69
2023/10/17 06:53:41;;;;;;;29.33;18.45;;;2.00;99.90;;;;;;2075805;28;20228;-69
2023/10/17 06:54:43;;;;;;;28.20;19.03;;;1.90;99.90;;;;;;2076497;28;20233;-69
2023/10/17 06:55:44;;;;;;;30.17;19.55;;;2.00;99.90;;;;;;2077658;28;20796;-68
2023/10/17 06:56:45;;;;;;;29.27;19.58;;;2.10;99.90;;;;;;2086637;28;20236;-69
2023/10/17 06:57:50;;;;;;;28.70;19.03;;;2.10;99.90;;;;;;2086861;28;20715;-69
2023/10/17 06:58:50;;;;;;;28.05;18.42;;;2.10;99.90;;;;;;2085208;28;20752;-69
2023/10/17 06:59:54;;;;;;;26.83;17.03;;;2.20;99.90;;;;;;2080861;28;20239;-69
2023/10/17 07:00:59;;;;;;;26.33;17.42;;;2.20;99.90;;;;;;2076427;28;20225;-68
2023/10/17 07:02:10;;;;;;;28.20;18.38;;;2.30;99.90;;;;;;2082167;28;20264;-69
2023/10/17 07:03:14;;;;;;;27.63;17.45;;;2.30;99.90;;;;;;2088147;28;20227;-69
2023/10/17 07:04:15;;;;;;;26.63;15.52;;;2.40;99.90;;;;;;2088023;28;20261;-69
2023/10/17 07:05:22;;;;;;;27.13;17.17;;;2.40;99.90;;;;;;2086290;28;20203;-69
2023/10/17 07:06:27;;;;;;;25.30;16.92;;;2.40;99.90;;;;;;2088941;28;20678;-69
2023/10/17 07:07:40;;;;;;;30.70;17.55;;;2.50;99.90;;;;;;2076910;28;20232;-69
2023/10/17 07:08:41;;;;;;;23.75;16.40;;;2.50;99.90;;;;;;2082248;28;20221;-69
2023/10/17 07:09:42;;;;;;;25.77;17.00;;;2.50;99.90;;;;;;2079732;28;20718;-69
2023/10/17 07:10:59;;;;;;;25.27;17.08;;;2.50;99.90;;;;;;2080225;28;20288;-69